createdAt,value
2018-06-22T00:01:17.023Z,12.29
2018-06-22T00:03:45.669Z,12.38
2018-06-22T00:06:14.415Z,12.40
2018-06-22T00:08:43.011Z,12.33
2018-06-22T00:11:11.996Z,12.28
2018-06-22T00:13:40.649Z,12.28
2018-06-22T00:16:09.214Z,12.24
2018-06-22T00:18:37.759Z,12.25
2018-06-22T00:21:06.446Z,12.28
2018-06-22T00:23:34.959Z,12.31
2018-06-22T00:26:03.605Z,12.29
2018-06-22T00:28:32.760Z,12.26
2018-06-22T00:31:01.986Z,12.23
2018-06-22T00:33:30.967Z,12.23
2018-06-22T00:35:59.506Z,12.22
2018-06-22T00:38:29.005Z,12.19
2018-06-22T00:40:57.719Z,12.22
2018-06-22T00:43:26.274Z,12.16
2018-06-22T00:45:56.065Z,12.11
2018-06-22T00:48:24.906Z,12.10
2018-06-22T00:50:53.456Z,12.02
2018-06-22T00:54:25.352Z,11.92
2018-06-22T00:56:54.436Z,11.81
2018-06-22T00:59:22.947Z,11.75
2018-06-22T01:01:51.511Z,11.69
2018-06-22T01:04:20.184Z,11.67
2018-06-22T01:06:48.771Z,11.63
2018-06-22T01:09:17.389Z,11.53
2018-06-22T01:11:46.040Z,11.50
2018-06-22T01:14:14.484Z,11.41
2018-06-22T01:16:43.085Z,11.37
2018-06-22T01:19:11.717Z,11.33
2018-06-22T01:21:40.516Z,11.26
2018-06-22T01:24:09.025Z,11.21
2018-06-22T01:26:38.532Z,11.13
2018-06-22T01:29:12.291Z,11.02
2018-06-22T01:31:41.136Z,11.05
2018-06-22T01:34:09.859Z,11.11
2018-06-22T01:36:39.983Z,11.12
2018-06-22T01:39:09.579Z,11.00
2018-06-22T01:41:39.179Z,10.87
2018-06-22T01:44:07.809Z,10.71
2018-06-22T01:46:37.061Z,10.69
2018-06-22T01:49:06.380Z,10.67
2018-06-22T01:51:35.010Z,10.62
2018-06-22T01:54:03.754Z,10.54
2018-06-22T01:56:32.795Z,10.36
2018-06-22T01:59:01.336Z,10.29
2018-06-22T02:01:29.928Z,10.14
2018-06-22T02:03:58.667Z,10.05
2018-06-22T02:06:27.245Z,9.99
2018-06-22T02:08:55.887Z,10.01
2018-06-22T02:11:24.960Z,9.97
2018-06-22T02:13:54.042Z,9.91
2018-06-22T02:16:22.767Z,9.86
2018-06-22T02:18:51.330Z,9.87
2018-06-22T02:21:21.330Z,9.85
2018-06-22T02:23:49.836Z,9.77
2018-06-22T02:26:18.560Z,9.75
2018-06-22T02:28:47.277Z,9.71
2018-06-22T02:31:16.083Z,9.68
2018-06-22T02:33:44.758Z,9.62
2018-06-22T02:36:13.445Z,9.62
2018-06-22T02:38:42.151Z,9.58
2018-06-22T02:41:10.694Z,9.51
2018-06-22T02:43:39.400Z,9.53
2018-06-22T02:46:07.924Z,9.41
2018-06-22T02:48:36.492Z,9.37
2018-06-22T02:51:05.036Z,9.37
2018-06-22T02:53:33.622Z,9.29
2018-06-22T02:56:02.402Z,9.33
2018-06-22T02:58:31.196Z,9.29
2018-06-22T03:00:59.983Z,9.23
2018-06-22T03:03:29.400Z,9.17
2018-06-22T03:05:57.980Z,9.07
2018-06-22T03:08:26.620Z,9.01
2018-06-22T03:10:55.391Z,8.96
2018-06-22T03:13:24.070Z,8.96
2018-06-22T03:15:52.718Z,9.02
2018-06-22T03:18:21.905Z,8.91
2018-06-22T03:20:50.551Z,8.84
2018-06-22T03:23:19.178Z,8.80
2018-06-22T03:25:48.256Z,8.84
2018-06-22T03:28:17.267Z,8.77
2018-06-22T03:30:45.871Z,8.75
2018-06-22T03:33:14.756Z,8.71
2018-06-22T03:35:43.376Z,8.68
2018-06-22T03:38:11.912Z,8.61
2018-06-22T03:40:40.718Z,8.61
2018-06-22T03:43:09.542Z,8.61
2018-06-22T03:45:38.993Z,8.68
2018-06-22T03:48:07.812Z,8.75
2018-06-22T03:50:36.436Z,8.72
2018-06-22T03:53:05.032Z,8.75
2018-06-22T03:55:33.660Z,8.71
2018-06-22T03:58:02.228Z,8.74
2018-06-22T04:00:31.166Z,8.83
2018-06-22T04:03:01.356Z,8.92
2018-06-22T04:05:32.007Z,9.04
2018-06-22T04:08:00.790Z,9.15
2018-06-22T04:10:30.031Z,9.27
2018-06-22T04:12:58.598Z,9.39
2018-06-22T04:15:28.021Z,9.50
2018-06-22T04:17:56.616Z,9.59
2018-06-22T04:20:26.391Z,9.72
2018-06-22T04:22:55.246Z,9.87
2018-06-22T04:25:24.906Z,9.93
2018-06-22T04:27:53.830Z,10.00
2018-06-22T04:30:22.661Z,10.09
2018-06-22T04:32:51.716Z,10.20
2018-06-22T04:35:20.668Z,10.34
2018-06-22T04:37:50.193Z,10.46
2018-06-22T04:40:19.031Z,10.56
2018-06-22T04:42:47.638Z,10.69
2018-06-22T04:45:16.725Z,10.82
2018-06-22T04:47:45.511Z,10.96
2018-06-22T04:50:14.776Z,11.17
2018-06-22T04:52:43.548Z,11.25
2018-06-22T04:55:12.162Z,11.21
2018-06-22T04:57:41.141Z,11.25
2018-06-22T05:00:09.933Z,11.30
2018-06-22T05:02:38.723Z,11.38
2018-06-22T05:05:07.297Z,11.45
2018-06-22T05:07:36.198Z,11.49
2018-06-22T05:10:05.154Z,11.68
2018-06-22T05:12:33.754Z,11.75
2018-06-22T05:15:02.442Z,11.78
2018-06-22T05:17:31.454Z,11.92
2018-06-22T05:20:00.092Z,12.00
2018-06-22T05:22:28.962Z,12.14
2018-06-22T05:24:57.758Z,12.30
2018-06-22T05:27:26.493Z,12.71
2018-06-22T05:29:55.082Z,13.15
2018-06-22T05:32:23.715Z,13.68
2018-06-22T05:34:52.338Z,14.30
2018-06-22T05:37:20.933Z,15.03
2018-06-22T05:39:49.676Z,15.53
2018-06-22T05:42:18.232Z,16.09
2018-06-22T05:44:46.795Z,16.62
2018-06-22T05:47:16.091Z,17.00
2018-06-22T05:49:45.121Z,17.05
2018-06-22T05:52:14.526Z,16.56
2018-06-22T05:54:43.146Z,15.90
2018-06-22T05:57:12.149Z,15.52
2018-06-22T05:59:40.901Z,15.02
2018-06-22T06:02:09.693Z,14.74
2018-06-22T06:04:39.166Z,14.90
2018-06-22T06:07:08.137Z,15.43
2018-06-22T06:09:36.966Z,16.21
2018-06-22T06:12:05.947Z,16.53
2018-06-22T06:14:35.716Z,17.81
2018-06-22T06:17:05.798Z,19.33
2018-06-22T06:19:35.123Z,19.43
2018-06-22T06:22:03.883Z,20.30
2018-06-22T06:24:32.972Z,21.28
2018-06-22T06:27:01.628Z,21.56
2018-06-22T06:29:30.431Z,21.61
2018-06-22T06:31:59.072Z,21.61
2018-06-22T06:34:28.035Z,20.87
2018-06-22T06:36:56.796Z,21.49
2018-06-22T06:39:27.033Z,21.95
2018-06-22T06:41:56.156Z,22.90
2018-06-22T06:44:25.172Z,23.61
2018-06-22T06:46:54.834Z,23.42
2018-06-22T06:49:23.545Z,23.83
2018-06-22T06:51:52.289Z,24.04
2018-06-22T06:54:20.844Z,24.03
2018-06-22T06:56:50.058Z,24.69
2018-06-22T06:59:18.992Z,24.70
2018-06-22T07:01:47.595Z,24.65
2018-06-22T07:04:17.015Z,24.35
2018-06-22T07:06:45.846Z,24.58
2018-06-22T07:09:14.669Z,24.99
2018-06-22T07:11:43.293Z,25.49
2018-06-22T07:14:12.053Z,25.64
2018-06-22T07:16:40.662Z,26.15
2018-06-22T07:19:09.669Z,26.51
2018-06-22T07:21:38.363Z,26.07
2018-06-22T07:24:07.294Z,25.46
2018-06-22T07:26:35.860Z,24.77
2018-06-22T07:29:04.613Z,23.57
2018-06-22T07:31:33.279Z,23.74
2018-06-22T07:34:02.160Z,25.18
2018-06-22T07:36:31.064Z,26.48
2018-06-22T07:39:00.284Z,26.41
2018-06-22T07:41:29.838Z,26.74
2018-06-22T07:43:58.765Z,27.89
2018-06-22T07:46:28.488Z,28.28
2018-06-22T07:48:57.475Z,28.99
2018-06-22T07:51:26.257Z,29.60
2018-06-22T07:53:54.890Z,29.79
2018-06-22T07:56:24.248Z,30.33
2018-06-22T07:58:52.835Z,27.89
2018-06-22T08:01:22.342Z,25.56
2018-06-22T08:03:51.003Z,23.56
2018-06-22T08:06:19.800Z,23.79
2018-06-22T08:08:48.698Z,22.63
2018-06-22T08:11:17.645Z,22.14
2018-06-22T08:13:46.461Z,21.29
2018-06-22T08:16:15.459Z,20.10
2018-06-22T08:18:44.157Z,20.14
2018-06-22T08:21:12.879Z,20.08
2018-06-22T08:23:41.623Z,20.66
2018-06-22T08:26:10.925Z,20.90
2018-06-22T08:28:40.256Z,22.85
2018-06-22T08:31:09.057Z,23.46
2018-06-22T08:33:37.632Z,23.94
2018-06-22T08:36:06.758Z,23.72
2018-06-22T08:38:35.504Z,24.52
2018-06-22T08:41:04.310Z,25.09
2018-06-22T08:43:34.804Z,27.12
2018-06-22T08:46:04.699Z,28.91
2018-06-22T08:48:33.423Z,29.37
2018-06-22T08:51:02.295Z,29.59
2018-06-22T08:53:31.330Z,28.58
2018-06-22T08:56:00.720Z,28.68
2018-06-22T08:58:29.918Z,29.57
2018-06-22T09:00:59.155Z,30.97
2018-06-22T09:03:28.489Z,30.23
2018-06-22T09:05:57.450Z,31.55
2018-06-22T09:08:26.060Z,31.18
2018-06-22T09:10:54.898Z,28.36
2018-06-22T09:13:23.714Z,28.19
2018-06-22T09:15:52.753Z,27.46
2018-06-22T09:18:21.631Z,28.09
2018-06-22T09:20:50.924Z,29.99
2018-06-22T09:23:19.980Z,29.84
2018-06-22T09:25:48.734Z,28.10
2018-06-22T09:28:17.592Z,28.72
2018-06-22T09:30:47.163Z,30.90
2018-06-22T09:33:15.934Z,32.23
2018-06-22T09:35:44.588Z,32.13
2018-06-22T09:38:13.543Z,32.49
2018-06-22T09:40:42.219Z,32.74
2018-06-22T09:43:10.815Z,32.96
2018-06-22T09:45:40.215Z,31.57
2018-06-22T09:48:08.899Z,29.86
2018-06-22T09:50:37.733Z,31.08
2018-06-22T09:53:06.475Z,32.96
2018-06-22T09:55:35.222Z,33.97
2018-06-22T09:58:04.039Z,35.41
2018-06-22T10:00:32.715Z,34.70
2018-06-22T10:03:01.503Z,32.89
2018-06-22T10:05:30.369Z,29.25
2018-06-22T10:07:58.995Z,27.79
2018-06-22T10:10:27.968Z,28.97
2018-06-22T10:12:56.822Z,30.16
2018-06-22T10:15:25.443Z,32.50
2018-06-22T10:17:54.564Z,34.28
2018-06-22T10:20:23.403Z,34.80
2018-06-22T10:22:52.261Z,34.67
2018-06-22T10:25:20.938Z,35.82
2018-06-22T10:27:49.625Z,34.62
2018-06-22T10:30:18.493Z,30.40
2018-06-22T10:32:47.075Z,30.80
2018-06-22T10:35:15.797Z,30.70
2018-06-22T10:37:44.414Z,32.56
2018-06-22T10:40:13.560Z,35.01
2018-06-22T10:42:42.483Z,36.70
2018-06-22T10:45:11.273Z,35.43
2018-06-22T10:47:39.959Z,33.21
2018-06-22T10:50:08.685Z,32.78
2018-06-22T10:52:37.448Z,31.46
2018-06-22T10:55:06.289Z,32.13
2018-06-22T10:57:34.945Z,32.10
2018-06-22T11:00:03.895Z,34.55
2018-06-22T11:02:32.496Z,34.27
2018-06-22T11:05:01.842Z,32.91
2018-06-22T11:07:30.539Z,33.11
2018-06-22T11:09:59.424Z,32.99
2018-06-22T11:12:28.379Z,33.98
2018-06-22T11:14:57.508Z,33.79
2018-06-22T11:17:26.288Z,33.68
2018-06-22T11:19:55.144Z,34.34
2018-06-22T11:22:23.851Z,33.95
2018-06-22T11:24:52.681Z,34.99
2018-06-22T11:27:21.454Z,34.04
2018-06-22T11:29:50.034Z,32.37
2018-06-22T11:32:18.893Z,30.55
2018-06-22T11:34:48.610Z,28.47
2018-06-22T11:37:17.285Z,27.23
2018-06-22T11:39:45.978Z,26.27
2018-06-22T11:42:14.999Z,25.88
2018-06-22T11:44:44.524Z,26.99
2018-06-22T11:47:13.484Z,27.64
2018-06-22T11:49:42.571Z,27.61
2018-06-22T11:52:11.419Z,25.79
2018-06-22T11:54:40.300Z,25.11
2018-06-22T11:57:08.996Z,25.50
2018-06-22T11:59:37.719Z,24.93
2018-06-22T12:02:06.702Z,25.30
2018-06-22T12:04:35.571Z,28.19
2018-06-22T12:07:04.426Z,31.09
2018-06-22T12:09:33.271Z,30.46
2018-06-22T12:12:02.016Z,28.45
2018-06-22T12:14:32.175Z,26.29
2018-06-22T12:17:00.912Z,25.11
2018-06-22T12:19:30.392Z,25.99
2018-06-22T12:21:59.141Z,26.36
2018-06-22T12:24:27.945Z,27.33
2018-06-22T12:26:56.845Z,28.12
2018-06-22T12:29:25.616Z,27.75
2018-06-22T12:31:55.164Z,26.57
2018-06-22T12:34:23.834Z,25.53
2018-06-22T12:36:52.495Z,24.64
2018-06-22T12:39:21.326Z,24.08
2018-06-22T12:41:49.925Z,23.83
2018-06-22T12:44:19.033Z,24.15
2018-06-22T12:46:48.005Z,24.68
2018-06-22T12:49:17.125Z,24.82
2018-06-22T12:51:46.342Z,24.26
2018-06-22T12:54:15.077Z,23.71
2018-06-22T12:56:44.676Z,22.98
2018-06-22T12:59:13.238Z,22.48
2018-06-22T13:01:42.477Z,22.96
2018-06-22T13:04:11.192Z,23.19
2018-06-22T13:06:40.246Z,23.55
2018-06-22T13:09:11.673Z,23.36
2018-06-22T13:11:40.674Z,23.05
2018-06-22T13:14:10.142Z,23.34
2018-06-22T13:16:38.892Z,23.56
2018-06-22T13:19:08.012Z,23.90
2018-06-22T13:21:49.509Z,23.50
2018-06-22T13:24:18.626Z,23.27
2018-06-22T13:26:47.292Z,23.13
2018-06-22T13:29:16.514Z,23.02
2018-06-22T13:31:46.564Z,23.30
2018-06-22T13:34:16.501Z,23.90
2018-06-22T13:36:46.098Z,23.58
2018-06-22T13:39:18.745Z,23.32
2018-06-22T13:41:48.142Z,23.76
2018-06-22T13:44:17.049Z,23.94
2018-06-22T13:46:46.021Z,23.60
2018-06-22T13:49:14.900Z,23.38
2018-06-22T13:51:43.601Z,23.09
2018-06-22T13:54:12.620Z,22.92
2018-06-22T13:56:41.400Z,22.84
2018-06-22T13:59:10.170Z,22.94
2018-06-22T14:01:38.862Z,22.52
2018-06-22T14:04:12.707Z,22.13
2018-06-22T14:06:55.241Z,22.11
2018-06-22T14:09:23.952Z,22.09
2018-06-22T14:11:52.869Z,22.20
2018-06-22T14:14:21.620Z,22.26
2018-06-22T14:16:50.291Z,22.73
2018-06-22T14:19:19.074Z,22.93
2018-06-22T14:21:47.885Z,22.75
2018-06-22T14:24:16.601Z,22.46
2018-06-22T14:26:45.267Z,22.24
2018-06-22T14:29:14.060Z,21.86
2018-06-22T14:31:42.893Z,21.52
2018-06-22T14:34:11.707Z,21.30
2018-06-22T14:36:40.543Z,21.04
2018-06-22T14:39:09.796Z,20.86
2018-06-22T14:41:38.579Z,20.65
2018-06-22T14:44:07.313Z,20.58
2018-06-22T14:46:36.275Z,20.71
2018-06-22T14:49:05.396Z,20.46
2018-06-22T14:51:34.051Z,20.62
2018-06-22T14:55:05.889Z,20.82
2018-06-22T14:57:39.865Z,20.88
2018-06-22T15:00:13.885Z,21.04
2018-06-22T15:02:48.066Z,21.08
2018-06-22T15:05:22.142Z,21.18
2018-06-22T15:07:54.985Z,20.94
2018-06-22T15:10:24.106Z,20.91
2018-06-22T15:12:53.111Z,20.95
2018-06-22T15:15:21.984Z,20.69
2018-06-22T15:17:51.640Z,20.26
2018-06-22T15:20:20.902Z,20.24
2018-06-22T15:22:50.053Z,20.46
2018-06-22T15:25:19.823Z,20.42
2018-06-22T15:27:48.596Z,20.14
2018-06-22T15:30:17.620Z,20.08
2018-06-22T15:32:46.357Z,19.97
2018-06-22T15:35:20.184Z,19.97
2018-06-22T15:37:54.825Z,19.94
2018-06-22T15:41:29.417Z,19.82
2018-06-22T15:44:03.458Z,20.05
2018-06-22T15:46:37.187Z,20.36
2018-06-22T15:49:11.181Z,20.51
2018-06-22T15:51:45.161Z,20.33
2018-06-22T15:54:19.313Z,20.04
2018-06-22T15:56:48.076Z,19.90
2018-06-22T15:59:16.766Z,19.82
2018-06-22T16:01:45.661Z,19.66
2018-06-22T16:04:14.431Z,19.58
2018-06-22T16:06:43.421Z,19.61
2018-06-22T16:09:12.452Z,19.60
2018-06-22T16:11:43.206Z,19.41
2018-06-22T16:14:17.164Z,19.37
2018-06-22T16:16:50.957Z,19.52
2018-06-22T16:19:25.011Z,19.73
2018-06-22T16:21:58.853Z,20.01
2018-06-22T16:24:33.112Z,20.13
2018-06-22T16:27:08.675Z,19.95
2018-06-22T16:29:37.429Z,19.81
2018-06-22T16:32:06.263Z,19.73
2018-06-22T16:34:35.090Z,19.64
2018-06-22T16:37:04.013Z,19.64
2018-06-22T16:39:32.641Z,19.60
2018-06-22T16:42:01.326Z,19.43
2018-06-22T16:44:30.642Z,19.36
2018-06-22T16:46:59.352Z,19.44
2018-06-22T16:49:29.187Z,19.50
2018-06-22T16:51:57.958Z,19.16
2018-06-22T16:54:26.903Z,18.72
2018-06-22T16:56:55.682Z,18.52
2018-06-22T16:59:24.366Z,18.40
2018-06-22T17:01:53.366Z,18.25
2018-06-22T17:04:22.793Z,18.13
2018-06-22T17:06:56.755Z,18.08
2018-06-22T17:09:30.972Z,18.05
2018-06-22T17:12:04.949Z,18.00
2018-06-22T17:14:38.719Z,17.98
2018-06-22T17:17:12.903Z,17.88
2018-06-22T17:19:41.703Z,17.82
2018-06-22T17:22:10.377Z,17.77
2018-06-22T17:24:40.028Z,17.80
2018-06-22T17:27:09.072Z,17.95
2018-06-22T17:29:37.933Z,18.11
2018-06-22T17:32:06.779Z,18.22
2018-06-22T17:34:35.507Z,18.23
2018-06-22T17:37:04.319Z,18.23
2018-06-22T17:39:33.065Z,18.36
2018-06-22T17:42:01.747Z,18.14
2018-06-22T17:44:30.517Z,17.83
2018-06-22T17:46:59.218Z,17.74
2018-06-22T17:49:27.832Z,17.70
2018-06-22T17:51:56.664Z,17.71
2018-06-22T17:54:25.486Z,17.68
2018-06-22T17:56:54.307Z,17.67
2018-06-22T17:59:28.454Z,17.61
2018-06-22T18:02:02.308Z,17.55
2018-06-22T18:04:44.268Z,17.52
2018-06-22T18:07:18.683Z,17.49
2018-06-22T18:09:52.612Z,17.47
2018-06-22T18:12:26.793Z,17.47
2018-06-22T18:14:55.526Z,17.52
2018-06-22T18:17:24.891Z,17.54
2018-06-22T18:19:53.797Z,17.54
2018-06-22T18:22:22.437Z,17.46
2018-06-22T18:24:51.499Z,17.34
2018-06-22T18:27:20.655Z,17.29
2018-06-22T18:29:49.553Z,17.20
2018-06-22T18:32:19.227Z,17.15
2018-06-22T18:34:48.252Z,17.14
2018-06-22T18:37:17.198Z,17.12
2018-06-22T18:39:46.361Z,17.11
2018-06-22T18:42:15.321Z,17.08
2018-06-22T18:44:44.276Z,16.97
2018-06-22T18:47:13.337Z,16.94
2018-06-22T18:49:42.336Z,16.90
2018-06-22T18:52:16.469Z,16.84
2018-06-22T18:56:14.513Z,16.87
2018-06-22T18:58:48.418Z,16.85
2018-06-22T19:01:22.443Z,16.83
2018-06-22T19:03:51.744Z,16.78
2018-06-22T19:06:20.573Z,16.77
2018-06-22T19:08:49.527Z,16.67
2018-06-22T19:11:18.969Z,16.60
2018-06-22T19:13:47.620Z,16.46
2018-06-22T19:16:16.467Z,16.35
2018-06-22T19:18:45.430Z,16.12
2018-06-22T19:21:14.199Z,16.01
2018-06-22T19:23:43.387Z,15.78
2018-06-22T19:26:12.125Z,15.66
2018-06-22T19:28:40.927Z,15.46
2018-06-22T19:31:09.584Z,15.14
2018-06-22T19:33:38.490Z,15.03
2018-06-22T19:36:07.562Z,14.94
2018-06-22T19:38:36.604Z,14.79
2018-06-22T19:41:06.049Z,14.66
2018-06-22T19:43:39.918Z,14.54
2018-06-22T19:46:13.856Z,14.43
2018-06-22T19:48:48.338Z,14.31
2018-06-22T19:51:22.326Z,14.22
2018-06-22T19:54:00.891Z,14.17
2018-06-22T19:56:30.622Z,14.07
2018-06-22T19:58:59.433Z,13.95
2018-06-22T20:01:28.449Z,13.92
2018-06-22T20:03:57.737Z,13.72
2018-06-22T20:06:26.968Z,13.75
2018-06-22T20:08:56.258Z,13.78
2018-06-22T20:11:24.997Z,13.70
2018-06-22T20:13:53.987Z,13.58
2018-06-22T20:16:22.878Z,13.56
2018-06-22T20:18:52.244Z,13.42
2018-06-22T20:21:21.444Z,13.25
2018-06-22T20:23:50.554Z,13.18
2018-06-22T20:26:19.318Z,13.21
2018-06-22T20:28:48.298Z,13.17
2018-06-22T20:31:22.260Z,13.17
2018-06-22T20:33:51.070Z,13.13
2018-06-22T20:36:26.778Z,13.03
2018-06-22T20:39:00.913Z,12.97
2018-06-22T20:41:34.731Z,12.93
2018-06-22T20:44:09.171Z,12.85
2018-06-22T20:46:43.284Z,12.88
2018-06-22T20:49:17.321Z,12.74
2018-06-22T20:51:46.169Z,12.69
2018-06-22T20:54:15.690Z,12.69
2018-06-22T20:56:45.079Z,12.57
2018-06-22T20:59:14.082Z,12.57
2018-06-22T21:01:43.290Z,12.54
2018-06-22T21:04:15.936Z,12.47
2018-06-22T21:06:44.600Z,12.40
2018-06-22T21:09:13.510Z,12.48
2018-06-22T21:11:42.938Z,12.48
2018-06-22T21:14:11.986Z,12.50
2018-06-22T21:16:41.457Z,12.43
2018-06-22T21:19:10.486Z,12.39
2018-06-22T21:21:44.949Z,12.27
2018-06-22T21:24:13.952Z,12.21
2018-06-22T21:26:42.611Z,12.22
2018-06-22T21:29:16.501Z,12.14
2018-06-22T21:31:50.373Z,12.13
2018-06-22T21:34:24.555Z,11.99
2018-06-22T21:36:59.187Z,11.92
2018-06-22T21:39:28.150Z,11.83
2018-06-22T21:41:56.830Z,11.65
2018-06-22T21:44:25.758Z,11.59
2018-06-22T21:46:54.509Z,11.44
2018-06-22T21:49:23.184Z,11.29
2018-06-22T21:51:51.797Z,11.33
2018-06-22T21:54:20.737Z,11.28
2018-06-22T21:56:49.374Z,11.19
2018-06-22T21:59:18.005Z,10.98
2018-06-22T22:01:46.705Z,10.80
2018-06-22T22:04:16.204Z,10.71
2018-06-22T22:06:44.754Z,10.74
2018-06-22T22:09:13.663Z,10.77
2018-06-22T22:11:47.582Z,10.86
2018-06-22T22:14:16.456Z,10.90
2018-06-22T22:16:45.219Z,10.71
2018-06-22T22:19:14.058Z,10.57
2018-06-22T22:21:43.415Z,10.52
2018-06-22T22:24:12.149Z,10.54
2018-06-22T22:26:40.925Z,10.56
2018-06-22T22:29:10.293Z,10.42
2018-06-22T22:31:38.927Z,10.34
2018-06-22T22:34:07.947Z,10.23
2018-06-22T22:36:36.958Z,10.17
2018-06-22T22:39:07.468Z,10.14
2018-06-22T22:41:36.479Z,10.10
2018-06-22T22:44:05.314Z,10.03
2018-06-22T22:46:33.895Z,10.05
2018-06-22T22:49:03.223Z,10.09
2018-06-22T22:51:32.026Z,10.05
2018-06-22T22:54:00.922Z,9.91
2018-06-22T22:56:29.740Z,9.85
2018-06-22T22:58:58.792Z,9.84
2018-06-22T23:01:27.400Z,9.72
2018-06-22T23:03:56.363Z,9.68
2018-06-22T23:06:24.931Z,9.70
2018-06-22T23:08:53.586Z,9.66
2018-06-22T23:11:23.152Z,9.58
2018-06-22T23:13:51.986Z,9.44
2018-06-22T23:16:20.635Z,9.42
2018-06-22T23:18:49.207Z,9.38
2018-06-22T23:21:18.020Z,9.33
2018-06-22T23:23:46.683Z,9.27
2018-06-22T23:26:15.529Z,9.24
2018-06-22T23:28:44.268Z,9.15
2018-06-22T23:31:13.015Z,9.06
2018-06-22T23:33:42.273Z,9.02
2018-06-22T23:36:11.012Z,8.97
2018-06-22T23:38:39.675Z,8.95
2018-06-22T23:41:09.378Z,8.95
2018-06-22T23:43:37.926Z,8.97
2018-06-22T23:46:06.719Z,8.82
2018-06-22T23:48:35.534Z,8.77
2018-06-22T23:51:04.094Z,8.76
2018-06-22T23:53:33.294Z,8.79
2018-06-22T23:56:02.025Z,8.79
2018-06-22T23:58:30.615Z,8.79
